sensor_id;sensor_type;location;lat;lon;timestamp;P1;durP1;ratioP1;P2;durP2;ratioP2
61200;SDS011;47065;52.898;6.992;2023-05-19T00:01:56;11.80;;;5.57;;
61200;SDS011;47065;52.898;6.992;2023-05-19T00:04:24;11.30;;;4.88;;
61200;SDS011;47065;52.898;6.992;2023-05-19T00:06:51;9.43;;;5.38;;
61200;SDS011;47065;52.898;6.992;2023-05-19T00:09:18;8.85;;;5.53;;
61200;SDS011;47065;52.898;6.992;2023-05-19T00:11:44;16.23;;;7.00;;
61200;SDS011;47065;52.898;6.992;2023-05-19T00:14:13;10.10;;;5.30;;
61200;SDS011;47065;52.898;6.992;2023-05-19T00:16:39;15.20;;;5.75;;
61200;SDS011;47065;52.898;6.992;2023-05-19T00:19:06;18.35;;;6.43;;
61200;SDS011;47065;52.898;6.992;2023-05-19T00:21:34;15.90;;;6.00;;
61200;SDS011;47065;52.898;6.992;2023-05-19T00:24:01;14.35;;;6.38;;
61200;SDS011;47065;52.898;6.992;2023-05-19T00:26:27;12.10;;;6.03;;
61200;SDS011;47065;52.898;6.992;2023-05-19T00:28:53;16.33;;;6.15;;
61200;SDS011;47065;52.898;6.992;2023-05-19T00:31:18;14.80;;;6.18;;
61200;SDS011;47065;52.898;6.992;2023-05-19T00:33:44;24.23;;;7.72;;
61200;SDS011;47065;52.898;6.992;2023-05-19T00:36:10;16.88;;;7.43;;
61200;SDS011;47065;52.898;6.992;2023-05-19T00:38:36;21.05;;;6.80;;
61200;SDS011;47065;52.898;6.992;2023-05-19T00:41:02;21.58;;;7.57;;
61200;SDS011;47065;52.898;6.992;2023-05-19T00:43:28;16.42;;;8.15;;
61200;SDS011;47065;52.898;6.992;2023-05-19T00:45:55;18.55;;;7.60;;
61200;SDS011;47065;52.898;6.992;2023-05-19T00:48:21;14.88;;;7.90;;
61200;SDS011;47065;52.898;6.992;2023-05-19T00:50:47;15.90;;;7.05;;
61200;SDS011;47065;52.898;6.992;2023-05-19T00:53:15;14.68;;;6.88;;
61200;SDS011;47065;52.898;6.992;2023-05-19T00:55:42;19.27;;;6.97;;
61200;SDS011;47065;52.898;6.992;2023-05-19T00:58:08;11.95;;;7.50;;
61200;SDS011;47065;52.898;6.992;2023-05-19T01:00:35;12.88;;;6.60;;
61200;SDS011;47065;52.898;6.992;2023-05-19T01:03:03;13.00;;;5.65;;
61200;SDS011;47065;52.898;6.992;2023-05-19T01:05:35;11.05;;;6.15;;
61200;SDS011;47065;52.898;6.992;2023-05-19T01:08:05;15.10;;;5.60;;
61200;SDS011;47065;52.898;6.992;2023-05-19T01:10:32;11.25;;;5.80;;
61200;SDS011;47065;52.898;6.992;2023-05-19T01:12:58;14.70;;;5.97;;
61200;SDS011;47065;52.898;6.992;2023-05-19T01:15:24;12.52;;;6.13;;
61200;SDS011;47065;52.898;6.992;2023-05-19T01:18:00;12.50;;;5.32;;
61200;SDS011;47065;52.898;6.992;2023-05-19T01:33:48;17.90;;;7.68;;
61200;SDS011;47065;52.898;6.992;2023-05-19T01:36:14;21.38;;;10.05;;
61200;SDS011;47065;52.898;6.992;2023-05-19T01:38:41;22.13;;;9.27;;
61200;SDS011;47065;52.898;6.992;2023-05-19T01:41:08;21.52;;;8.43;;
61200;SDS011;47065;52.898;6.992;2023-05-19T01:43:35;16.33;;;9.40;;
61200;SDS011;47065;52.898;6.992;2023-05-19T01:46:01;21.85;;;8.50;;
61200;SDS011;47065;52.898;6.992;2023-05-19T01:48:27;20.33;;;8.77;;
61200;SDS011;47065;52.898;6.992;2023-05-19T01:50:53;24.77;;;8.88;;
61200;SDS011;47065;52.898;6.992;2023-05-19T01:53:21;18.42;;;7.72;;
61200;SDS011;47065;52.898;6.992;2023-05-19T01:55:49;19.98;;;7.63;;
61200;SDS011;47065;52.898;6.992;2023-05-19T02:00:53;21.23;;;7.90;;
61200;SDS011;47065;52.898;6.992;2023-05-19T02:11:55;12.98;;;6.15;;
61200;SDS011;47065;52.898;6.992;2023-05-19T02:14:34;10.73;;;5.40;;
61200;SDS011;47065;52.898;6.992;2023-05-19T02:17:05;20.40;;;8.50;;
61200;SDS011;47065;52.898;6.992;2023-05-19T02:19:33;17.67;;;7.97;;
61200;SDS011;47065;52.898;6.992;2023-05-19T02:22:02;13.98;;;7.15;;
61200;SDS011;47065;52.898;6.992;2023-05-19T02:24:28;24.48;;;7.80;;
61200;SDS011;47065;52.898;6.992;2023-05-19T02:26:53;11.80;;;6.28;;
61200;SDS011;47065;52.898;6.992;2023-05-19T02:29:19;14.02;;;6.85;;
61200;SDS011;47065;52.898;6.992;2023-05-19T02:31:45;13.10;;;6.60;;
61200;SDS011;47065;52.898;6.992;2023-05-19T02:34:11;18.70;;;7.95;;
61200;SDS011;47065;52.898;6.992;2023-05-19T02:36:38;17.92;;;7.50;;
61200;SDS011;47065;52.898;6.992;2023-05-19T02:39:05;16.17;;;7.25;;
61200;SDS011;47065;52.898;6.992;2023-05-19T02:41:31;18.45;;;8.00;;
61200;SDS011;47065;52.898;6.992;2023-05-19T02:43:56;14.40;;;6.45;;
61200;SDS011;47065;52.898;6.992;2023-05-19T02:46:22;20.50;;;8.15;;
61200;SDS011;47065;52.898;6.992;2023-05-19T02:48:48;14.82;;;8.30;;
61200;SDS011;47065;52.898;6.992;2023-05-19T02:51:14;13.55;;;7.20;;
61200;SDS011;47065;52.898;6.992;2023-05-19T02:53:40;11.25;;;5.30;;
61200;SDS011;47065;52.898;6.992;2023-05-19T02:56:05;12.48;;;5.10;;
61200;SDS011;47065;52.898;6.992;2023-05-19T02:58:31;11.48;;;6.05;;
61200;SDS011;47065;52.898;6.992;2023-05-19T03:00:57;11.13;;;4.55;;
61200;SDS011;47065;52.898;6.992;2023-05-19T03:03:22;16.90;;;6.20;;
61200;SDS011;47065;52.898;6.992;2023-05-19T03:05:48;12.18;;;6.05;;
61200;SDS011;47065;52.898;6.992;2023-05-19T03:08:13;9.38;;;5.80;;
61200;SDS011;47065;52.898;6.992;2023-05-19T03:10:39;15.45;;;6.18;;
61200;SDS011;47065;52.898;6.992;2023-05-19T03:13:05;11.18;;;6.30;;
61200;SDS011;47065;52.898;6.992;2023-05-19T03:15:30;39.38;;;6.25;;
61200;SDS011;47065;52.898;6.992;2023-05-19T03:17:57;70.28;;;8.15;;
61200;SDS011;47065;52.898;6.992;2023-05-19T03:20:23;12.02;;;4.65;;
61200;SDS011;47065;52.898;6.992;2023-05-19T03:22:48;92.30;;;8.70;;
61200;SDS011;47065;52.898;6.992;2023-05-19T03:25:14;146.18;;;11.23;;
61200;SDS011;47065;52.898;6.992;2023-05-19T03:27:41;33.85;;;6.57;;
61200;SDS011;47065;52.898;6.992;2023-05-19T03:30:06;7.93;;;4.53;;
61200;SDS011;47065;52.898;6.992;2023-05-19T03:32:33;11.73;;;5.53;;
61200;SDS011;47065;52.898;6.992;2023-05-19T03:35:01;9.57;;;5.55;;
61200;SDS011;47065;52.898;6.992;2023-05-19T03:37:28;13.88;;;6.70;;
61200;SDS011;47065;52.898;6.992;2023-05-19T03:39:54;8.75;;;5.85;;
61200;SDS011;47065;52.898;6.992;2023-05-19T03:42:19;14.48;;;5.80;;
61200;SDS011;47065;52.898;6.992;2023-05-19T03:44:45;8.68;;;5.20;;
61200;SDS011;47065;52.898;6.992;2023-05-19T03:47:11;12.63;;;5.38;;
61200;SDS011;47065;52.898;6.992;2023-05-19T03:49:36;10.07;;;5.70;;
61200;SDS011;47065;52.898;6.992;2023-05-19T03:52:02;31.92;;;7.47;;
61200;SDS011;47065;52.898;6.992;2023-05-19T03:54:27;9.77;;;6.57;;
61200;SDS011;47065;52.898;6.992;2023-05-19T03:56:53;21.52;;;7.07;;
61200;SDS011;47065;52.898;6.992;2023-05-19T03:59:19;17.63;;;7.25;;
61200;SDS011;47065;52.898;6.992;2023-05-19T04:01:44;19.23;;;7.43;;
61200;SDS011;47065;52.898;6.992;2023-05-19T04:04:10;10.05;;;6.25;;
61200;SDS011;47065;52.898;6.992;2023-05-19T04:06:36;15.30;;;7.10;;
61200;SDS011;47065;52.898;6.992;2023-05-19T04:09:02;15.63;;;7.10;;
61200;SDS011;47065;52.898;6.992;2023-05-19T04:11:34;23.33;;;10.15;;
61200;SDS011;47065;52.898;6.992;2023-05-19T04:14:01;16.17;;;8.40;;
61200;SDS011;47065;52.898;6.992;2023-05-19T04:16:26;22.73;;;9.88;;
61200;SDS011;47065;52.898;6.992;2023-05-19T04:18:52;24.52;;;11.25;;
61200;SDS011;47065;52.898;6.992;2023-05-19T04:21:18;22.80;;;12.13;;
61200;SDS011;47065;52.898;6.992;2023-05-19T04:23:46;29.02;;;12.05;;
61200;SDS011;47065;52.898;6.992;2023-05-19T04:26:12;34.28;;;11.68;;
61200;SDS011;47065;52.898;6.992;2023-05-19T04:28:38;25.13;;;10.68;;
61200;SDS011;47065;52.898;6.992;2023-05-19T04:31:06;23.38;;;11.38;;
61200;SDS011;47065;52.898;6.992;2023-05-19T04:33:36;25.77;;;11.48;;
61200;SDS011;47065;52.898;6.992;2023-05-19T04:36:03;27.52;;;12.38;;
61200;SDS011;47065;52.898;6.992;2023-05-19T04:38:32;30.63;;;12.82;;
61200;SDS011;47065;52.898;6.992;2023-05-19T04:40:59;34.65;;;13.60;;
61200;SDS011;47065;52.898;6.992;2023-05-19T04:43:26;25.05;;;12.57;;
61200;SDS011;47065;52.898;6.992;2023-05-19T04:45:52;36.55;;;12.88;;
61200;SDS011;47065;52.898;6.992;2023-05-19T04:48:18;23.45;;;11.35;;
61200;SDS011;47065;52.898;6.992;2023-05-19T04:50:45;23.40;;;12.32;;
61200;SDS011;47065;52.898;6.992;2023-05-19T04:53:13;23.98;;;13.30;;
61200;SDS011;47065;52.898;6.992;2023-05-19T04:55:39;38.45;;;13.70;;
61200;SDS011;47065;52.898;6.992;2023-05-19T04:58:05;21.25;;;11.18;;
61200;SDS011;47065;52.898;6.992;2023-05-19T05:00:31;29.20;;;12.98;;
61200;SDS011;47065;52.898;6.992;2023-05-19T05:02:59;27.85;;;13.02;;
61200;SDS011;47065;52.898;6.992;2023-05-19T05:05:29;22.48;;;9.55;;
61200;SDS011;47065;52.898;6.992;2023-05-19T05:07:55;24.13;;;12.10;;
61200;SDS011;47065;52.898;6.992;2023-05-19T05:10:21;26.55;;;12.07;;
61200;SDS011;47065;52.898;6.992;2023-05-19T05:12:47;29.00;;;12.57;;
61200;SDS011;47065;52.898;6.992;2023-05-19T05:15:13;23.70;;;12.45;;
61200;SDS011;47065;52.898;6.992;2023-05-19T05:17:39;27.20;;;11.93;;
61200;SDS011;47065;52.898;6.992;2023-05-19T05:20:05;23.65;;;11.13;;
61200;SDS011;47065;52.898;6.992;2023-05-19T05:22:32;19.30;;;10.60;;
61200;SDS011;47065;52.898;6.992;2023-05-19T05:24:58;24.90;;;11.77;;
61200;SDS011;47065;52.898;6.992;2023-05-19T05:27:25;26.20;;;12.02;;
61200;SDS011;47065;52.898;6.992;2023-05-19T05:29:51;21.40;;;11.00;;
61200;SDS011;47065;52.898;6.992;2023-05-19T05:32:17;21.15;;;11.48;;
61200;SDS011;47065;52.898;6.992;2023-05-19T05:34:43;25.60;;;11.65;;
61200;SDS011;47065;52.898;6.992;2023-05-19T05:37:09;24.73;;;12.45;;
61200;SDS011;47065;52.898;6.992;2023-05-19T05:39:35;15.65;;;9.10;;
61200;SDS011;47065;52.898;6.992;2023-05-19T05:42:01;20.17;;;9.43;;
61200;SDS011;47065;52.898;6.992;2023-05-19T05:44:26;18.70;;;9.82;;
61200;SDS011;47065;52.898;6.992;2023-05-19T05:46:52;13.68;;;8.63;;
61200;SDS011;47065;52.898;6.992;2023-05-19T05:49:18;15.70;;;9.48;;
61200;SDS011;47065;52.898;6.992;2023-05-19T05:51:44;17.42;;;8.48;;
61200;SDS011;47065;52.898;6.992;2023-05-19T05:54:10;17.73;;;9.75;;
61200;SDS011;47065;52.898;6.992;2023-05-19T05:56:37;17.33;;;9.93;;
61200;SDS011;47065;52.898;6.992;2023-05-19T05:59:03;11.75;;;7.78;;
61200;SDS011;47065;52.898;6.992;2023-05-19T06:01:29;14.65;;;8.63;;
61200;SDS011;47065;52.898;6.992;2023-05-19T06:03:55;19.10;;;7.90;;
61200;SDS011;47065;52.898;6.992;2023-05-19T06:06:21;18.65;;;8.80;;
61200;SDS011;47065;52.898;6.992;2023-05-19T06:08:46;15.25;;;8.23;;
61200;SDS011;47065;52.898;6.992;2023-05-19T06:11:12;14.02;;;7.15;;
61200;SDS011;47065;52.898;6.992;2023-05-19T06:13:38;15.90;;;8.82;;
61200;SDS011;47065;52.898;6.992;2023-05-19T06:16:05;11.95;;;7.18;;
61200;SDS011;47065;52.898;6.992;2023-05-19T06:18:31;13.55;;;8.43;;
61200;SDS011;47065;52.898;6.992;2023-05-19T06:20:57;12.85;;;6.68;;
61200;SDS011;47065;52.898;6.992;2023-05-19T06:23:22;13.27;;;6.28;;
61200;SDS011;47065;52.898;6.992;2023-05-19T06:25:50;8.10;;;6.90;;
61200;SDS011;47065;52.898;6.992;2023-05-19T06:28:16;14.50;;;6.55;;
61200;SDS011;47065;52.898;6.992;2023-05-19T06:30:41;14.02;;;6.93;;
61200;SDS011;47065;52.898;6.992;2023-05-19T06:33:07;14.75;;;6.72;;
61200;SDS011;47065;52.898;6.992;2023-05-19T06:35:32;13.20;;;6.95;;
61200;SDS011;47065;52.898;6.992;2023-05-19T06:37:58;12.18;;;6.50;;
61200;SDS011;47065;52.898;6.992;2023-05-19T06:40:24;17.23;;;8.27;;
61200;SDS011;47065;52.898;6.992;2023-05-19T06:42:49;9.13;;;5.95;;
61200;SDS011;47065;52.898;6.992;2023-05-19T06:45:15;15.48;;;6.68;;
61200;SDS011;47065;52.898;6.992;2023-05-19T06:47:41;14.35;;;5.63;;
61200;SDS011;47065;52.898;6.992;2023-05-19T06:50:09;10.43;;;5.35;;
61200;SDS011;47065;52.898;6.992;2023-05-19T06:52:36;11.38;;;4.95;;
61200;SDS011;47065;52.898;6.992;2023-05-19T06:55:02;10.00;;;4.97;;
61200;SDS011;47065;52.898;6.992;2023-05-19T06:57:28;11.38;;;5.57;;
61200;SDS011;47065;52.898;6.992;2023-05-19T06:59:53;14.35;;;4.32;;
61200;SDS011;47065;52.898;6.992;2023-05-19T07:02:19;8.10;;;4.88;;
61200;SDS011;47065;52.898;6.992;2023-05-19T07:04:44;7.32;;;4.80;;
61200;SDS011;47065;52.898;6.992;2023-05-19T07:07:11;8.73;;;4.53;;
61200;SDS011;47065;52.898;6.992;2023-05-19T07:09:37;7.40;;;4.03;;
61200;SDS011;47065;52.898;6.992;2023-05-19T07:12:03;11.80;;;3.95;;
61200;SDS011;47065;52.898;6.992;2023-05-19T07:14:29;9.10;;;3.70;;
61200;SDS011;47065;52.898;6.992;2023-05-19T07:16:55;12.40;;;4.20;;
61200;SDS011;47065;52.898;6.992;2023-05-19T07:19:21;8.55;;;3.90;;
61200;SDS011;47065;52.898;6.992;2023-05-19T07:21:47;11.98;;;3.95;;
61200;SDS011;47065;52.898;6.992;2023-05-19T07:24:13;6.45;;;3.85;;
61200;SDS011;47065;52.898;6.992;2023-05-19T07:26:39;4.95;;;3.63;;
61200;SDS011;47065;52.898;6.992;2023-05-19T07:29:06;7.28;;;3.67;;
61200;SDS011;47065;52.898;6.992;2023-05-19T07:31:32;8.88;;;3.08;;
61200;SDS011;47065;52.898;6.992;2023-05-19T07:33:57;9.10;;;3.28;;
61200;SDS011;47065;52.898;6.992;2023-05-19T07:36:23;9.27;;;3.47;;
61200;SDS011;47065;52.898;6.992;2023-05-19T07:38:49;7.35;;;3.03;;
61200;SDS011;47065;52.898;6.992;2023-05-19T07:41:14;7.43;;;2.30;;
61200;SDS011;47065;52.898;6.992;2023-05-19T07:43:40;6.22;;;2.33;;
61200;SDS011;47065;52.898;6.992;2023-05-19T07:46:06;5.10;;;2.17;;
61200;SDS011;47065;52.898;6.992;2023-05-19T07:48:32;9.50;;;2.58;;
61200;SDS011;47065;52.898;6.992;2023-05-19T07:50:57;6.55;;;2.72;;
61200;SDS011;47065;52.898;6.992;2023-05-19T07:53:23;9.00;;;2.28;;
61200;SDS011;47065;52.898;6.992;2023-05-19T07:55:49;12.18;;;2.58;;
61200;SDS011;47065;52.898;6.992;2023-05-19T07:58:14;7.55;;;2.45;;
61200;SDS011;47065;52.898;6.992;2023-05-19T08:00:40;8.45;;;2.80;;
61200;SDS011;47065;52.898;6.992;2023-05-19T08:03:09;6.25;;;2.33;;
61200;SDS011;47065;52.898;6.992;2023-05-19T08:05:35;5.85;;;2.97;;
61200;SDS011;47065;52.898;6.992;2023-05-19T08:08:01;6.28;;;2.13;;
61200;SDS011;47065;52.898;6.992;2023-05-19T08:10:27;5.38;;;2.58;;
61200;SDS011;47065;52.898;6.992;2023-05-19T08:12:53;7.20;;;2.40;;
61200;SDS011;47065;52.898;6.992;2023-05-19T08:15:18;5.68;;;2.15;;
61200;SDS011;47065;52.898;6.992;2023-05-19T08:17:44;5.45;;;2.45;;
61200;SDS011;47065;52.898;6.992;2023-05-19T08:20:10;8.73;;;2.33;;
61200;SDS011;47065;52.898;6.992;2023-05-19T08:22:36;7.18;;;2.38;;
61200;SDS011;47065;52.898;6.992;2023-05-19T08:25:02;6.50;;;2.45;;
61200;SDS011;47065;52.898;6.992;2023-05-19T08:27:29;7.32;;;2.05;;
61200;SDS011;47065;52.898;6.992;2023-05-19T08:29:55;3.63;;;1.90;;
61200;SDS011;47065;52.898;6.992;2023-05-19T08:32:21;5.90;;;2.55;;
61200;SDS011;47065;52.898;6.992;2023-05-19T08:34:47;4.43;;;1.52;;
61200;SDS011;47065;52.898;6.992;2023-05-19T08:37:12;10.20;;;2.97;;
61200;SDS011;47065;52.898;6.992;2023-05-19T08:39:38;6.82;;;2.75;;
61200;SDS011;47065;52.898;6.992;2023-05-19T08:42:04;6.55;;;2.00;;
61200;SDS011;47065;52.898;6.992;2023-05-19T08:44:32;6.22;;;2.40;;
61200;SDS011;47065;52.898;6.992;2023-05-19T08:46:59;7.88;;;2.35;;
61200;SDS011;47065;52.898;6.992;2023-05-19T08:49:29;5.10;;;2.30;;
61200;SDS011;47065;52.898;6.992;2023-05-19T08:51:59;4.32;;;1.83;;
61200;SDS011;47065;52.898;6.992;2023-05-19T08:54:36;6.07;;;2.88;;
61200;SDS011;47065;52.898;6.992;2023-05-19T08:57:11;4.95;;;1.70;;
61200;SDS011;47065;52.898;6.992;2023-05-19T08:59:37;4.03;;;2.35;;
61200;SDS011;47065;52.898;6.992;2023-05-19T09:02:05;4.60;;;2.00;;
61200;SDS011;47065;52.898;6.992;2023-05-19T09:04:32;5.65;;;1.92;;
61200;SDS011;47065;52.898;6.992;2023-05-19T09:06:58;5.43;;;1.70;;
61200;SDS011;47065;52.898;6.992;2023-05-19T09:09:28;5.22;;;1.83;;
61200;SDS011;47065;52.898;6.992;2023-05-19T09:11:54;7.03;;;2.60;;
61200;SDS011;47065;52.898;6.992;2023-05-19T09:14:20;3.63;;;2.08;;
61200;SDS011;47065;52.898;6.992;2023-05-19T09:16:46;9.82;;;2.20;;
61200;SDS011;47065;52.898;6.992;2023-05-19T09:19:14;7.57;;;2.90;;
61200;SDS011;47065;52.898;6.992;2023-05-19T09:21:41;7.45;;;2.60;;
61200;SDS011;47065;52.898;6.992;2023-05-19T09:24:06;5.50;;;2.10;;
61200;SDS011;47065;52.898;6.992;2023-05-19T09:26:37;5.72;;;1.85;;
61200;SDS011;47065;52.898;6.992;2023-05-19T09:29:10;3.70;;;1.42;;
61200;SDS011;47065;52.898;6.992;2023-05-19T09:31:37;6.47;;;2.08;;
61200;SDS011;47065;52.898;6.992;2023-05-19T09:34:02;5.93;;;1.90;;
61200;SDS011;47065;52.898;6.992;2023-05-19T09:36:28;5.15;;;2.35;;
61200;SDS011;47065;52.898;6.992;2023-05-19T09:38:55;5.53;;;2.28;;
61200;SDS011;47065;52.898;6.992;2023-05-19T09:41:20;5.88;;;2.60;;
61200;SDS011;47065;52.898;6.992;2023-05-19T09:43:53;6.57;;;1.98;;
61200;SDS011;47065;52.898;6.992;2023-05-19T09:46:20;7.47;;;3.35;;
61200;SDS011;47065;52.898;6.992;2023-05-19T09:51:39;5.82;;;1.98;;
61200;SDS011;47065;52.898;6.992;2023-05-19T09:54:06;8.48;;;2.88;;
61200;SDS011;47065;52.898;6.992;2023-05-19T09:56:34;4.43;;;1.75;;
61200;SDS011;47065;52.898;6.992;2023-05-19T09:59:00;7.68;;;2.05;;
61200;SDS011;47065;52.898;6.992;2023-05-19T10:01:32;5.97;;;2.25;;
61200;SDS011;47065;52.898;6.992;2023-05-19T10:03:57;6.90;;;2.13;;
61200;SDS011;47065;52.898;6.992;2023-05-19T10:06:24;6.57;;;2.08;;
61200;SDS011;47065;52.898;6.992;2023-05-19T10:08:51;7.32;;;2.40;;
61200;SDS011;47065;52.898;6.992;2023-05-19T10:11:18;6.13;;;1.80;;
61200;SDS011;47065;52.898;6.992;2023-05-19T10:13:45;2.97;;;1.88;;
61200;SDS011;47065;52.898;6.992;2023-05-19T10:16:13;6.10;;;1.85;;
61200;SDS011;47065;52.898;6.992;2023-05-19T10:18:40;8.15;;;2.10;;
61200;SDS011;47065;52.898;6.992;2023-05-19T10:21:06;4.15;;;2.13;;
61200;SDS011;47065;52.898;6.992;2023-05-19T10:23:33;5.90;;;2.15;;
61200;SDS011;47065;52.898;6.992;2023-05-19T10:25:58;3.15;;;1.55;;
61200;SDS011;47065;52.898;6.992;2023-05-19T10:28:30;4.95;;;2.17;;
61200;SDS011;47065;52.898;6.992;2023-05-19T10:31:00;5.78;;;2.45;;
61200;SDS011;47065;52.898;6.992;2023-05-19T10:33:41;5.78;;;2.03;;
61200;SDS011;47065;52.898;6.992;2023-05-19T10:39:05;6.47;;;2.10;;
61200;SDS011;47065;52.898;6.992;2023-05-19T10:41:52;7.10;;;2.20;;
61200;SDS011;47065;52.898;6.992;2023-05-19T10:47:42;5.55;;;2.30;;
61200;SDS011;47065;52.898;6.992;2023-05-19T10:50:09;4.85;;;2.00;;
61200;SDS011;47065;52.898;6.992;2023-05-19T10:52:36;10.98;;;1.90;;
61200;SDS011;47065;52.898;6.992;2023-05-19T10:55:03;4.75;;;1.73;;
61200;SDS011;47065;52.898;6.992;2023-05-19T10:57:32;4.65;;;2.08;;
61200;SDS011;47065;52.898;6.992;2023-05-19T10:59:59;5.65;;;1.77;;
61200;SDS011;47065;52.898;6.992;2023-05-19T11:02:36;8.88;;;2.20;;
61200;SDS011;47065;52.898;6.992;2023-05-19T11:05:08;6.75;;;1.95;;
61200;SDS011;47065;52.898;6.992;2023-05-19T11:07:37;7.50;;;2.33;;
61200;SDS011;47065;52.898;6.992;2023-05-19T11:10:07;5.78;;;1.65;;
61200;SDS011;47065;52.898;6.992;2023-05-19T11:12:44;7.28;;;1.90;;
61200;SDS011;47065;52.898;6.992;2023-05-19T11:15:13;6.15;;;1.95;;
61200;SDS011;47065;52.898;6.992;2023-05-19T11:17:40;6.82;;;2.50;;
61200;SDS011;47065;52.898;6.992;2023-05-19T11:20:19;6.13;;;2.38;;
61200;SDS011;47065;52.898;6.992;2023-05-19T11:25:40;5.00;;;2.10;;
61200;SDS011;47065;52.898;6.992;2023-05-19T11:28:17;3.78;;;1.70;;
61200;SDS011;47065;52.898;6.992;2023-05-19T11:30:45;7.93;;;2.17;;
61200;SDS011;47065;52.898;6.992;2023-05-19T11:33:15;6.00;;;1.95;;
61200;SDS011;47065;52.898;6.992;2023-05-19T11:35:47;7.40;;;2.20;;
61200;SDS011;47065;52.898;6.992;2023-05-19T11:38:18;7.47;;;2.05;;
61200;SDS011;47065;52.898;6.992;2023-05-19T11:40:44;5.57;;;2.05;;
61200;SDS011;47065;52.898;6.992;2023-05-19T11:43:11;5.95;;;1.77;;
61200;SDS011;47065;52.898;6.992;2023-05-19T11:45:37;4.20;;;2.28;;
61200;SDS011;47065;52.898;6.992;2023-05-19T11:48:03;3.70;;;2.00;;
61200;SDS011;47065;52.898;6.992;2023-05-19T11:50:31;4.43;;;1.80;;
61200;SDS011;47065;52.898;6.992;2023-05-19T11:52:58;7.75;;;2.00;;
61200;SDS011;47065;52.898;6.992;2023-05-19T11:55:24;7.22;;;2.85;;
61200;SDS011;47065;52.898;6.992;2023-05-19T11:57:59;6.93;;;2.22;;
61200;SDS011;47065;52.898;6.992;2023-05-19T12:00:29;5.80;;;2.50;;
61200;SDS011;47065;52.898;6.992;2023-05-19T12:03:01;5.90;;;1.92;;
61200;SDS011;47065;52.898;6.992;2023-05-19T12:05:27;3.70;;;2.00;;
61200;SDS011;47065;52.898;6.992;2023-05-19T12:07:54;7.95;;;2.13;;
61200;SDS011;47065;52.898;6.992;2023-05-19T12:10:23;8.45;;;2.80;;
61200;SDS011;47065;52.898;6.992;2023-05-19T12:12:50;5.30;;;1.98;;
61200;SDS011;47065;52.898;6.992;2023-05-19T12:15:19;4.68;;;2.13;;
61200;SDS011;47065;52.898;6.992;2023-05-19T12:17:59;7.28;;;2.28;;
61200;SDS011;47065;52.898;6.992;2023-05-19T12:20:29;7.53;;;2.10;;
61200;SDS011;47065;52.898;6.992;2023-05-19T12:22:56;6.93;;;2.28;;
61200;SDS011;47065;52.898;6.992;2023-05-19T12:25:23;6.03;;;2.45;;
61200;SDS011;47065;52.898;6.992;2023-05-19T12:27:49;8.82;;;2.40;;
61200;SDS011;47065;52.898;6.992;2023-05-19T12:30:17;7.22;;;2.03;;
61200;SDS011;47065;52.898;6.992;2023-05-19T12:32:48;6.95;;;2.45;;
61200;SDS011;47065;52.898;6.992;2023-05-19T12:35:15;7.72;;;2.25;;
61200;SDS011;47065;52.898;6.992;2023-05-19T12:37:41;6.63;;;1.95;;
61200;SDS011;47065;52.898;6.992;2023-05-19T12:40:07;9.63;;;2.78;;
61200;SDS011;47065;52.898;6.992;2023-05-19T12:42:33;8.82;;;2.30;;
61200;SDS011;47065;52.898;6.992;2023-05-19T12:45:01;5.75;;;2.92;;
61200;SDS011;47065;52.898;6.992;2023-05-19T12:47:29;6.15;;;2.30;;
61200;SDS011;47065;52.898;6.992;2023-05-19T12:50:06;5.45;;;2.50;;
61200;SDS011;47065;52.898;6.992;2023-05-19T12:52:43;5.80;;;2.28;;
61200;SDS011;47065;52.898;6.992;2023-05-19T12:55:13;3.92;;;1.80;;
61200;SDS011;47065;52.898;6.992;2023-05-19T12:57:41;7.60;;;2.47;;
61200;SDS011;47065;52.898;6.992;2023-05-19T13:00:14;6.00;;;2.65;;
61200;SDS011;47065;52.898;6.992;2023-05-19T13:05:37;6.60;;;3.33;;
61200;SDS011;47065;52.898;6.992;2023-05-19T13:08:05;6.00;;;2.90;;
61200;SDS011;47065;52.898;6.992;2023-05-19T13:10:32;7.28;;;2.70;;
61200;SDS011;47065;52.898;6.992;2023-05-19T13:12:59;4.72;;;1.95;;
61200;SDS011;47065;52.898;6.992;2023-05-19T13:15:26;6.85;;;3.33;;
61200;SDS011;47065;52.898;6.992;2023-05-19T13:17:58;7.82;;;2.15;;
61200;SDS011;47065;52.898;6.992;2023-05-19T13:20:25;8.75;;;3.22;;
61200;SDS011;47065;52.898;6.992;2023-05-19T13:22:50;6.18;;;2.33;;
61200;SDS011;47065;52.898;6.992;2023-05-19T13:25:16;5.97;;;2.28;;
61200;SDS011;47065;52.898;6.992;2023-05-19T13:27:45;5.75;;;2.08;;
61200;SDS011;47065;52.898;6.992;2023-05-19T13:30:12;5.90;;;2.40;;
61200;SDS011;47065;52.898;6.992;2023-05-19T13:32:37;4.68;;;1.95;;
61200;SDS011;47065;52.898;6.992;2023-05-19T13:35:03;6.25;;;2.13;;
61200;SDS011;47065;52.898;6.992;2023-05-19T13:37:29;4.75;;;2.25;;
61200;SDS011;47065;52.898;6.992;2023-05-19T13:39:55;9.63;;;2.78;;
61200;SDS011;47065;52.898;6.992;2023-05-19T13:42:23;4.88;;;2.35;;
61200;SDS011;47065;52.898;6.992;2023-05-19T13:44:52;5.30;;;2.65;;
61200;SDS011;47065;52.898;6.992;2023-05-19T13:47:19;5.13;;;2.65;;
61200;SDS011;47065;52.898;6.992;2023-05-19T13:49:44;9.52;;;2.40;;
61200;SDS011;47065;52.898;6.992;2023-05-19T13:52:10;5.13;;;2.38;;
61200;SDS011;47065;52.898;6.992;2023-05-19T13:54:37;5.03;;;2.00;;
61200;SDS011;47065;52.898;6.992;2023-05-19T13:57:02;5.90;;;2.42;;
61200;SDS011;47065;52.898;6.992;2023-05-19T13:59:28;8.52;;;2.42;;
61200;SDS011;47065;52.898;6.992;2023-05-19T14:01:54;8.48;;;2.65;;
61200;SDS011;47065;52.898;6.992;2023-05-19T14:04:19;8.20;;;3.88;;
61200;SDS011;47065;52.898;6.992;2023-05-19T14:06:45;8.07;;;3.20;;
61200;SDS011;47065;52.898;6.992;2023-05-19T14:09:11;6.90;;;2.45;;
61200;SDS011;47065;52.898;6.992;2023-05-19T14:11:37;5.78;;;2.33;;
61200;SDS011;47065;52.898;6.992;2023-05-19T14:14:02;7.75;;;2.75;;
61200;SDS011;47065;52.898;6.992;2023-05-19T14:16:28;3.72;;;1.83;;
61200;SDS011;47065;52.898;6.992;2023-05-19T14:18:54;8.80;;;2.63;;
61200;SDS011;47065;52.898;6.992;2023-05-19T14:21:20;5.10;;;2.17;;
61200;SDS011;47065;52.898;6.992;2023-05-19T14:23:46;4.80;;;2.28;;
61200;SDS011;47065;52.898;6.992;2023-05-19T14:26:12;10.25;;;2.80;;
61200;SDS011;47065;52.898;6.992;2023-05-19T14:28:38;6.47;;;2.10;;
61200;SDS011;47065;52.898;6.992;2023-05-19T14:31:03;3.92;;;1.88;;
61200;SDS011;47065;52.898;6.992;2023-05-19T14:33:30;6.97;;;2.17;;
61200;SDS011;47065;52.898;6.992;2023-05-19T14:35:55;5.00;;;2.22;;
61200;SDS011;47065;52.898;6.992;2023-05-19T14:38:24;5.30;;;1.63;;
61200;SDS011;47065;52.898;6.992;2023-05-19T14:40:50;3.47;;;1.63;;
61200;SDS011;47065;52.898;6.992;2023-05-19T14:43:15;5.80;;;1.77;;
61200;SDS011;47065;52.898;6.992;2023-05-19T14:45:41;4.70;;;2.10;;
61200;SDS011;47065;52.898;6.992;2023-05-19T14:48:07;6.68;;;2.03;;
61200;SDS011;47065;52.898;6.992;2023-05-19T14:50:34;3.50;;;1.65;;
61200;SDS011;47065;52.898;6.992;2023-05-19T14:53:00;2.67;;;2.13;;
61200;SDS011;47065;52.898;6.992;2023-05-19T14:55:25;4.28;;;1.98;;
61200;SDS011;47065;52.898;6.992;2023-05-19T14:57:51;3.78;;;1.80;;
61200;SDS011;47065;52.898;6.992;2023-05-19T15:00:16;9.43;;;3.03;;
61200;SDS011;47065;52.898;6.992;2023-05-19T15:02:42;7.15;;;1.80;;
61200;SDS011;47065;52.898;6.992;2023-05-19T15:05:08;5.38;;;1.70;;
61200;SDS011;47065;52.898;6.992;2023-05-19T15:07:35;3.88;;;2.03;;
61200;SDS011;47065;52.898;6.992;2023-05-19T15:10:01;4.50;;;1.70;;
61200;SDS011;47065;52.898;6.992;2023-05-19T15:12:28;4.43;;;1.95;;
61200;SDS011;47065;52.898;6.992;2023-05-19T15:14:54;4.40;;;1.80;;
61200;SDS011;47065;52.898;6.992;2023-05-19T15:17:20;3.95;;;1.63;;
61200;SDS011;47065;52.898;6.992;2023-05-19T15:19:46;8.02;;;2.15;;